This is the latest recevied weather packets stored in our database for station/object SR9WXGR. If no packets are shown the sender has not sent any weather packets the latest 10 day(s).
| Time | Temp. | Humidity | Pressure | Rain* | Wind** | Luminosity | Snow |
|---|---|---|---|---|---|---|---|
| 1777977300 | 23.89° C | 21% | 971 hPa | - | - | - | - |
| 1777973701 | 22.78° C | 24% | 972 hPa | - | - | - | - |
| 1777970100 | 20.56° C | 25% | 972 hPa | - | - | - | - |
| 1777966502 | 20° C | 27% | 973 hPa | - | - | - | - |
| 1777962901 | 17.78° C | 30% | 973 hPa | - | - | - | - |
| 1777959301 | 15° C | 34% | 973 hPa | - | - | - | - |
| 1777955701 | 12.78° C | 39% | 974 hPa | - | - | - | - |
| 1777934101 | 17.78° C | 26% | 975 hPa | - | - | - | - |
| 1777926902 | 20° C | 22% | 974 hPa | - | - | - | - |
| 1777919701 | 22.78° C | 21% | 974 hPa | - | - | - | - |
| 1777916101 | 25.56° C | 18% | 973 hPa | - | - | - | - |
| 1777908900 | 31.67° C | 13% | 973 hPa | - | - | - | - |
| 1777905300 | 30.56° C | 15% | 974 hPa | - | - | - | - |
| 1777901701 | 27.78° C | 18% | 974 hPa | - | - | - | - |
| 1777898100 | 25° C | 20% | 975 hPa | - | - | - | - |
| 1777887301 | 20° C | 25% | 977 hPa | - | - | - | - |
| 1777883700 | 17.78° C | 27% | 977 hPa | - | - | - | - |
| 1777880100 | 16.67° C | 29% | 977 hPa | - | - | - | - |
| 1777876501 | 15.56° C | 32% | 977 hPa | - | - | - | - |
| 1777872900 | 13.89° C | 35% | 977 hPa | - | - | - | - |
| 1777869302 | 11.67° C | 37% | 977 hPa | - | - | - | - |
| 1777865701 | 10.56° C | 39% | 977 hPa | - | - | - | - |
| 1777833301 | 20.56° C | 23% | 977 hPa | - | - | - | - |
| 1777808101 | 20.56° C | 25% | 980 hPa | - | - | - | - |
| 1777800900 | 20° C | 26% | 981 hPa | - | - | - | - |
* Rain since midnight (hover to see other rain measurements)
** Current wind speed in m/s (hover to see current wind gust speed)